Time;durP1;ratioP1;P1;durP2;ratioP2;P2;SDS_P1;SDS_P2;PMS_P1;PMS_P2;Temp;Humidity;BMP_temperature;BMP_pressure;BME280_temperature;BME280_humidity;BME280_pressure;Samples;Min_cycle;Max_cycle;Signal;HPM_P1;HPM_P2
2023/12/05 00:00:39;;;;;;;21.55;13.82;;;-0.40;77.20;;;;;;6278029;22;20176;-72
2023/12/05 00:03:06;;;;;;;19.65;14.10;;;-0.40;77.00;;;;;;6277961;22;20156;-72
2023/12/05 00:05:33;;;;;;;22.35;15.18;;;-0.40;77.10;;;;;;6278142;22;20173;-72
2023/12/05 00:08:00;;;;;;;22.88;15.60;;;-0.40;77.30;;;;;;6278132;22;20173;-72
2023/12/05 00:10:27;;;;;;;20.20;14.48;;;-0.40;77.90;;;;;;6277266;22;20189;-73
2023/12/05 00:12:55;;;;;;;19.52;13.77;;;-0.40;78.60;;;;;;6278055;22;20204;-73
2023/12/05 00:15:22;;;;;;;16.50;12.30;;;-0.40;78.90;;;;;;6278117;22;20216;-72
2023/12/05 00:17:49;;;;;;;19.02;12.82;;;-0.30;79.30;;;;;;6277837;22;20205;-72
2023/12/05 00:20:16;;;;;;;16.92;11.48;;;-0.30;79.40;;;;;;6277495;22;20173;-72
2023/12/05 00:22:43;;;;;;;17.10;10.82;;;-0.20;79.50;;;;;;6277305;22;20245;-72
2023/12/05 00:25:12;;;;;;;17.40;10.77;;;-0.20;79.70;;;;;;6277508;22;20544;-72
2023/12/05 00:27:39;;;;;;;14.60;9.55;;;-0.10;80.10;;;;;;6277336;22;20188;-72
2023/12/05 00:30:09;;;;;;;16.98;10.10;;;-0.10;80.50;;;;;;6277852;22;20540;-72
2023/12/05 00:32:36;;;;;;;16.20;10.70;;;0.00;81.20;;;;;;6277584;22;20197;-73
2023/12/05 00:35:03;;;;;;;14.88;9.35;;;0.00;81.60;;;;;;6277260;22;20702;-72
2023/12/05 00:37:30;;;;;;;13.75;8.95;;;0.00;81.70;;;;;;6277143;22;20623;-73
2023/12/05 00:39:57;;;;;;;11.85;9.15;;;0.10;82.10;;;;;;6277251;22;20204;-72
2023/12/05 00:42:24;;;;;;;15.63;9.95;;;0.10;82.20;;;;;;6277672;22;20632;-72
2023/12/05 00:44:51;;;;;;;12.18;8.63;;;0.20;82.20;;;;;;6277249;22;20221;-72
2023/12/05 00:47:19;;;;;;;17.08;8.38;;;0.20;81.80;;;;;;6277687;22;20166;-72
2023/12/05 00:49:49;;;;;;;12.40;9.48;;;0.20;81.50;;;;;;6277582;22;20230;-73
2023/12/05 00:52:16;;;;;;;14.40;10.23;;;0.20;81.50;;;;;;6277327;22;20225;-72
2023/12/05 00:54:43;;;;;;;12.52;9.45;;;0.30;81.10;;;;;;6276908;22;20162;-72
2023/12/05 00:57:10;;;;;;;13.88;9.77;;;0.30;80.60;;;;;;6277043;22;20173;-72
2023/12/05 00:59:38;;;;;;;12.77;8.55;;;0.30;80.70;;;;;;6277449;22;20162;-72
2023/12/05 01:02:05;;;;;;;10.57;8.25;;;0.30;80.90;;;;;;6277908;22;20204;-72
2023/12/05 01:04:33;;;;;;;11.65;8.00;;;0.40;81.30;;;;;;6277321;22;20526;-73
2023/12/05 01:07:00;;;;;;;12.80;8.32;;;0.40;81.60;;;;;;6277038;22;20655;-73
2023/12/05 01:09:27;;;;;;;15.65;9.63;;;0.40;81.70;;;;;;6276896;22;20169;-72
2023/12/05 01:11:54;;;;;;;22.45;12.80;;;0.40;81.90;;;;;;6277383;22;20181;-72
2023/12/05 01:14:23;;;;;;;15.68;11.05;;;0.40;82.20;;;;;;6277110;22;20193;-73
2023/12/05 01:16:54;;;;;;;13.18;9.90;;;0.40;82.40;;;;;;6277328;22;20165;-73
2023/12/05 01:19:21;;;;;;;13.90;10.00;;;0.50;82.40;;;;;;6277008;22;20231;-72
2023/12/05 01:21:50;;;;;;;12.32;8.10;;;0.50;82.30;;;;;;6277338;22;20245;-72
2023/12/05 01:24:17;;;;;;;10.50;8.00;;;0.50;82.40;;;;;;6277183;22;20552;-72
2023/12/05 01:26:44;;;;;;;11.82;9.32;;;0.50;82.70;;;;;;6277263;22;20651;-72
2023/12/05 01:29:11;;;;;;;10.68;8.80;;;0.50;82.90;;;;;;6277042;22;20628;-73
2023/12/05 01:31:38;;;;;;;11.05;8.15;;;0.60;83.30;;;;;;6277495;22;20189;-74
2023/12/05 01:34:05;;;;;;;7.78;6.78;;;0.60;83.40;;;;;;6276668;22;20166;-73
2023/12/05 01:36:32;;;;;;;8.70;7.07;;;0.60;83.90;;;;;;6277369;22;20193;-72
2023/12/05 01:39:00;;;;;;;8.95;6.72;;;0.50;85.00;;;;;;6276506;22;20626;-72
2023/12/05 01:41:27;;;;;;;9.57;7.47;;;0.60;85.40;;;;;;6277286;22;20252;-72
2023/12/05 01:43:54;;;;;;;10.00;7.35;;;0.60;85.20;;;;;;6276583;22;20244;-72
2023/12/05 01:46:21;;;;;;;7.88;6.35;;;0.70;85.20;;;;;;6277061;22;20236;-72
2023/12/05 01:48:49;;;;;;;10.65;6.80;;;0.80;85.50;;;;;;6277119;22;20200;-72
2023/12/05 01:51:17;;;;;;;7.70;6.50;;;0.80;85.50;;;;;;6277164;22;20221;-72
2023/12/05 01:53:45;;;;;;;10.45;5.72;;;0.90;85.80;;;;;;6276908;22;20204;-72
2023/12/05 01:56:14;;;;;;;8.52;6.28;;;0.90;85.90;;;;;;6277459;22;20196;-72
2023/12/05 01:58:41;;;;;;;11.30;7.15;;;1.00;86.10;;;;;;6277100;22;20223;-72
2023/12/05 02:01:11;;;;;;;10.43;7.00;;;1.00;85.90;;;;;;6277274;22;20169;-72
2023/12/05 02:03:40;;;;;;;9.13;6.15;;;1.10;86.00;;;;;;6276905;22;20515;-72
2023/12/05 02:06:07;;;;;;;10.18;7.15;;;1.10;86.00;;;;;;6276776;22;20205;-72
2023/12/05 02:08:35;;;;;;;10.90;7.70;;;1.10;86.00;;;;;;6277253;22;20275;-72
2023/12/05 02:11:02;;;;;;;14.70;7.88;;;1.10;86.00;;;;;;6277116;22;20505;-72
2023/12/05 02:13:30;;;;;;;11.13;7.05;;;1.10;86.10;;;;;;6276225;22;20204;-72
2023/12/05 02:16:05;;;;;;;12.55;7.05;;;1.10;86.00;;;;;;6276771;22;20248;-72
2023/12/05 02:18:38;;;;;;;10.85;7.20;;;1.20;86.10;;;;;;6277251;22;20236;-72
2023/12/05 02:21:11;;;;;;;12.88;8.05;;;1.20;86.00;;;;;;6277195;22;20237;-72
2023/12/05 02:23:54;;;;;;;12.88;6.72;;;1.20;85.80;;;;;;6276881;22;20635;-72
2023/12/05 02:26:28;;;;;;;11.68;7.82;;;1.30;85.80;;;;;;6277058;22;20208;-72
2023/12/05 02:28:57;;;;;;;10.77;7.45;;;1.30;85.70;;;;;;6277133;22;20149;-73
2023/12/05 02:31:24;;;;;;;9.95;7.55;;;1.30;86.00;;;;;;6275441;22;20224;-72
2023/12/05 02:33:51;;;;;;;15.57;8.13;;;1.30;86.20;;;;;;6276793;22;20199;-72
2023/12/05 02:36:25;;;;;;;10.27;7.38;;;1.30;85.70;;;;;;6276997;22;20166;-72
2023/12/05 02:39:03;;;;;;;15.68;8.73;;;1.40;86.10;;;;;;6276960;22;20229;-72
2023/12/05 02:41:33;;;;;;;11.82;7.80;;;1.40;86.30;;;;;;6276436;22;20237;-72
2023/12/05 02:44:07;;;;;;;11.38;8.73;;;1.40;86.50;;;;;;6276341;22;20229;-73
2023/12/05 02:46:35;;;;;;;10.23;7.30;;;1.40;86.70;;;;;;6276901;22;20584;-72
2023/12/05 02:49:04;;;;;;;12.25;8.50;;;1.40;86.70;;;;;;6277127;22;20316;-72
2023/12/05 02:51:31;;;;;;;7.65;6.55;;;1.40;86.80;;;;;;6278511;22;20217;-72
2023/12/05 02:54:01;;;;;;;12.25;7.97;;;1.40;86.70;;;;;;6278690;22;20201;-72
2023/12/05 02:56:29;;;;;;;9.20;7.18;;;1.50;86.60;;;;;;6278842;22;20154;-73
2023/12/05 02:58:55;;;;;;;12.60;8.00;;;1.50;86.40;;;;;;6278873;22;20162;-72
2023/12/05 03:01:24;;;;;;;7.47;6.05;;;1.50;86.40;;;;;;6278552;22;20205;-72
2023/12/05 03:03:51;;;;;;;10.38;8.20;;;1.50;86.30;;;;;;6278976;22;20245;-72
2023/12/05 03:06:18;;;;;;;10.18;7.22;;;1.50;86.10;;;;;;6278345;22;20246;-73
2023/12/05 03:08:45;;;;;;;10.65;7.53;;;1.50;85.90;;;;;;6278384;22;20204;-72
2023/12/05 03:11:12;;;;;;;9.80;7.68;;;1.50;85.80;;;;;;6277669;22;20166;-72
2023/12/05 03:13:40;;;;;;;9.40;7.20;;;1.50;85.90;;;;;;6277484;22;20165;-72
2023/12/05 03:16:08;;;;;;;8.90;7.38;;;1.50;86.00;;;;;;6278332;22;20168;-72
2023/12/05 03:18:36;;;;;;;12.15;7.95;;;1.50;86.00;;;;;;6278628;22;20161;-73
2023/12/05 03:21:04;;;;;;;10.80;8.30;;;1.50;85.60;;;;;;6278486;22;20198;-72
2023/12/05 03:23:31;;;;;;;9.50;6.80;;;1.50;85.30;;;;;;6278588;22;20197;-73
2023/12/05 03:25:58;;;;;;;10.20;7.82;;;1.40;85.10;;;;;;6278108;22;20616;-75
2023/12/05 03:28:25;;;;;;;12.02;8.15;;;1.40;85.30;;;;;;6278531;22;20173;-72
2023/12/05 03:30:52;;;;;;;11.98;8.00;;;1.40;85.40;;;;;;6278337;22;20189;-72
2023/12/05 03:33:19;;;;;;;14.50;9.70;;;1.50;85.70;;;;;;6278435;22;20208;-72
2023/12/05 03:35:47;;;;;;;13.98;8.63;;;1.50;85.60;;;;;;6277078;22;20207;-72
2023/12/05 03:38:14;;;;;;;12.32;8.80;;;1.50;85.50;;;;;;6278132;22;20671;-72
2023/12/05 03:40:41;;;;;;;12.02;8.13;;;1.50;85.60;;;;;;6278064;22;20165;-73
2023/12/05 03:43:08;;;;;;;10.23;8.77;;;1.50;85.60;;;;;;6277988;22;20201;-73
2023/12/05 03:45:35;;;;;;;14.38;8.75;;;1.50;85.90;;;;;;6278296;22;20231;-72
2023/12/05 03:48:02;;;;;;;10.50;8.68;;;1.50;86.10;;;;;;6278432;22;20240;-72
2023/12/05 03:50:29;;;;;;;12.88;8.10;;;1.50;86.10;;;;;;6277943;22;20204;-72
2023/12/05 03:52:57;;;;;;;10.35;7.75;;;1.50;85.90;;;;;;6277989;22;20196;-73
2023/12/05 03:55:24;;;;;;;11.73;7.95;;;1.50;85.80;;;;;;6278339;22;20528;-74
2023/12/05 03:57:51;;;;;;;12.50;8.32;;;1.50;85.80;;;;;;6278292;22;20166;-72
2023/12/05 04:00:19;;;;;;;12.85;8.35;;;1.50;85.60;;;;;;6277863;22;20647;-73
2023/12/05 04:02:46;;;;;;;11.43;9.35;;;1.50;85.80;;;;;;6277513;22;20684;-72
2023/12/05 04:05:13;;;;;;;12.68;8.45;;;1.50;85.40;;;;;;6278275;22;20200;-72
2023/12/05 04:07:42;;;;;;;9.68;7.30;;;1.50;85.10;;;;;;6277949;22;20193;-72
2023/12/05 04:10:10;;;;;;;12.23;8.48;;;1.40;84.50;;;;;;6277797;22;20240;-72
2023/12/05 04:12:39;;;;;;;12.15;8.02;;;1.40;84.20;;;;;;6277453;22;20225;-72
2023/12/05 04:15:07;;;;;;;9.75;7.47;;;1.40;84.00;;;;;;6278100;22;20204;-72
2023/12/05 04:17:35;;;;;;;13.38;8.85;;;1.30;83.30;;;;;;6277917;22;20166;-72
2023/12/05 04:20:04;;;;;;;10.20;8.07;;;1.20;83.20;;;;;;6278163;22;20193;-72
2023/12/05 04:22:31;;;;;;;10.27;6.80;;;1.20;83.00;;;;;;6277524;22;20685;-72
2023/12/05 04:24:58;;;;;;;12.90;6.97;;;1.20;82.50;;;;;;6278099;22;20170;-72
2023/12/05 04:27:26;;;;;;;10.40;7.00;;;1.10;82.60;;;;;;6277327;22;20166;-72
2023/12/05 04:29:53;;;;;;;11.52;7.72;;;1.00;82.60;;;;;;6277769;22;20204;-72
2023/12/05 04:32:20;;;;;;;9.68;7.55;;;1.00;82.80;;;;;;6276849;22;20221;-72
2023/12/05 04:34:47;;;;;;;10.88;7.90;;;0.90;83.00;;;;;;6277815;22;20459;-72
2023/12/05 04:37:14;;;;;;;10.38;7.35;;;0.90;83.50;;;;;;6277770;22;20169;-72
2023/12/05 04:39:41;;;;;;;9.75;7.82;;;0.90;84.40;;;;;;6277347;22;20168;-72
2023/12/05 04:42:08;;;;;;;9.27;7.75;;;0.90;85.00;;;;;;6277721;22;20495;-72
2023/12/05 04:44:36;;;;;;;12.45;7.60;;;0.90;84.50;;;;;;6274664;22;20711;-73
2023/12/05 04:47:04;;;;;;;12.10;7.47;;;0.80;83.40;;;;;;6277601;22;20158;-72
2023/12/05 04:49:31;;;;;;;11.15;7.82;;;0.80;83.30;;;;;;6276528;22;20565;-75
2023/12/05 04:51:58;;;;;;;10.98;8.52;;;0.80;82.70;;;;;;6273886;22;20280;-72
2023/12/05 04:54:25;;;;;;;15.27;9.82;;;0.70;82.10;;;;;;6277838;22;20173;-73
2023/12/05 04:56:52;;;;;;;13.40;8.23;;;0.70;82.60;;;;;;6276981;22;20165;-72
2023/12/05 04:59:19;;;;;;;9.50;7.65;;;0.70;82.60;;;;;;6272884;22;20248;-74
2023/12/05 05:01:47;;;;;;;9.52;7.43;;;0.60;83.20;;;;;;6270781;22;20779;-77
2023/12/05 05:04:14;;;;;;;13.90;8.73;;;0.60;84.10;;;;;;6272729;22;20172;-72
2023/12/05 05:06:41;;;;;;;10.23;7.82;;;0.60;83.70;;;;;;6277625;22;20169;-72
2023/12/05 05:09:08;;;;;;;12.25;8.65;;;0.50;83.20;;;;;;6277444;22;20248;-72
2023/12/05 05:11:35;;;;;;;9.13;6.43;;;0.60;82.90;;;;;;6277329;22;20222;-72
2023/12/05 05:14:02;;;;;;;9.80;6.53;;;0.50;83.00;;;;;;6276963;22;20197;-72
2023/12/05 05:16:29;;;;;;;10.48;6.80;;;0.50;83.50;;;;;;6277436;22;20240;-72
2023/12/05 05:18:59;;;;;;;9.18;6.60;;;0.50;84.30;;;;;;6277638;22;20193;-74
2023/12/05 05:21:25;;;;;;;8.00;6.30;;;0.50;84.70;;;;;;6277604;22;20170;-72
2023/12/05 05:23:52;;;;;;;5.95;5.30;;;0.50;84.80;;;;;;6276854;22;20169;-72
2023/12/05 05:26:19;;;;;;;22.70;20.60;;;0.40;84.00;;;;;;6277364;22;20200;-72
2023/12/05 05:28:46;;;;;;;12.10;10.80;;;0.40;84.10;;;;;;6277014;22;20197;-72
2023/12/05 05:31:13;;;;;;;9.20;7.95;;;0.40;84.50;;;;;;6277717;22;20550;-72
2023/12/05 05:33:40;;;;;;;6.72;4.90;;;0.40;84.60;;;;;;6277230;22;20583;-72
2023/12/05 05:36:09;;;;;;;7.85;5.85;;;0.40;83.80;;;;;;6277268;22;20688;-72
2023/12/05 05:38:36;;;;;;;11.05;6.50;;;0.30;83.30;;;;;;6274202;22;20172;-72
2023/12/05 05:41:07;;;;;;;8.13;5.38;;;0.30;83.00;;;;;;6276683;22;20219;-72
2023/12/05 05:43:34;;;;;;;7.40;5.10;;;0.30;83.50;;;;;;6276050;22;20620;-72
2023/12/05 05:46:01;;;;;;;7.78;5.15;;;0.30;84.20;;;;;;6275938;22;20189;-72
2023/12/05 05:48:28;;;;;;;6.35;5.40;;;0.30;85.00;;;;;;6276731;22;20215;-72
2023/12/05 05:50:55;;;;;;;7.13;5.20;;;0.30;85.40;;;;;;6276331;22;20169;-75
2023/12/05 05:53:24;;;;;;;24.05;15.65;;;0.30;85.80;;;;;;6276222;22;20288;-72
2023/12/05 05:55:51;;;;;;;8.60;6.65;;;0.30;86.10;;;;;;6276476;22;20212;-72
2023/12/05 05:58:18;;;;;;;6.25;5.00;;;0.30;85.90;;;;;;6275974;22;20197;-72
2023/12/05 06:00:45;;;;;;;8.43;7.50;;;0.40;85.60;;;;;;6275806;22;20655;-73
2023/12/05 06:03:12;;;;;;;16.58;14.80;;;0.30;85.00;;;;;;6276379;22;20169;-72
2023/12/05 06:05:39;;;;;;;17.40;10.90;;;0.40;84.70;;;;;;6276042;22;20176;-72
2023/12/05 06:08:06;;;;;;;8.85;6.18;;;0.40;84.00;;;;;;6276754;22;20539;-72
2023/12/05 06:10:36;;;;;;;8.80;5.95;;;0.40;83.20;;;;;;6276192;22;20189;-72
2023/12/05 06:13:03;;;;;;;9.70;5.30;;;0.30;82.20;;;;;;6276252;22;20181;-72
2023/12/05 06:15:30;;;;;;;7.32;5.28;;;0.30;81.80;;;;;;6276337;22;20170;-72
2023/12/05 06:17:57;;;;;;;7.28;5.78;;;0.30;80.60;;;;;;6276494;22;20535;-73
2023/12/05 06:20:24;;;;;;;7.05;4.80;;;0.20;79.20;;;;;;6276261;22;20162;-73
2023/12/05 06:22:51;;;;;;;10.73;5.70;;;0.20;78.50;;;;;;6276380;22;20494;-72
2023/12/05 06:25:18;;;;;;;8.68;6.18;;;0.10;79.00;;;;;;6277522;22;20532;-72
2023/12/05 06:27:47;;;;;;;8.40;5.90;;;0.10;78.50;;;;;;6277905;22;20166;-73
2023/12/05 06:30:14;;;;;;;10.48;6.97;;;0.10;78.40;;;;;;6278035;22;20166;-72
2023/12/05 06:32:41;;;;;;;6.93;5.60;;;0.00;78.70;;;;;;6278241;22;20272;-72
2023/12/05 06:35:09;;;;;;;10.57;7.72;;;0.00;79.20;;;;;;6277889;22;20165;-72
2023/12/05 06:37:36;;;;;;;14.85;8.68;;;0.00;79.80;;;;;;6277654;22;20196;-72
2023/12/05 06:40:03;;;;;;;12.35;8.60;;;0.00;80.20;;;;;;6277485;22;20165;-72
2023/12/05 06:42:30;;;;;;;14.20;8.85;;;-0.10;80.00;;;;;;6278064;22;20252;-72
2023/12/05 06:44:58;;;;;;;10.38;6.70;;;-0.10;80.30;;;;;;6277426;22;20272;-72
2023/12/05 06:47:25;;;;;;;8.77;6.15;;;-0.10;80.30;;;;;;6277996;22;20550;-72
2023/12/05 06:49:52;;;;;;;12.27;7.25;;;-0.10;80.00;;;;;;6277838;22;20220;-72
2023/12/05 06:52:20;;;;;;;75.68;27.70;;;0.00;79.90;;;;;;6277604;22;20197;-72
2023/12/05 06:54:47;;;;;;;14.95;9.25;;;-0.10;80.20;;;;;;6278221;22;20161;-73
2023/12/05 06:57:16;;;;;;;10.85;7.47;;;-0.10;80.40;;;;;;6277899;22;20188;-72
2023/12/05 06:59:43;;;;;;;8.65;5.97;;;-0.10;80.40;;;;;;6271904;22;20197;-72
2023/12/05 07:02:11;;;;;;;12.85;6.40;;;-0.10;80.90;;;;;;6277080;22;20617;-72
2023/12/05 07:04:38;;;;;;;9.57;6.38;;;-0.10;80.90;;;;;;6277331;22;20481;-72
2023/12/05 07:07:06;;;;;;;10.95;5.18;;;0.00;81.10;;;;;;6276494;22;20240;-72
2023/12/05 07:09:33;;;;;;;6.72;5.35;;;-0.10;79.20;;;;;;6277687;22;20192;-72
2023/12/05 07:12:00;;;;;;;10.45;6.10;;;-0.10;77.90;;;;;;6278114;22;20172;-73
2023/12/05 07:14:27;;;;;;;8.57;6.85;;;-0.10;77.90;;;;;;6273564;22;20276;-72
2023/12/05 07:16:55;;;;;;;9.68;6.25;;;-0.10;78.70;;;;;;6276944;22;20200;-72
2023/12/05 07:19:23;;;;;;;9.43;7.10;;;-0.20;79.80;;;;;;6276614;22;20165;-73
2023/12/05 07:21:50;;;;;;;11.63;7.65;;;-0.10;80.80;;;;;;6277127;22;20196;-73
2023/12/05 07:24:17;;;;;;;10.98;8.30;;;0.00;81.30;;;;;;6276674;22;20616;-72
2023/12/05 07:26:46;;;;;;;12.60;8.57;;;0.10;81.80;;;;;;6276796;22;20632;-72
2023/12/05 07:29:13;;;;;;;18.05;9.27;;;0.20;82.00;;;;;;6273376;22;20200;-72
2023/12/05 07:31:40;;;;;;;13.18;8.40;;;0.20;82.40;;;;;;6276823;22;20240;-73
2023/12/05 07:34:07;;;;;;;13.32;8.55;;;0.20;83.20;;;;;;6276519;22;20277;-72
2023/12/05 07:36:39;;;;;;;36.53;21.40;;;0.30;85.10;;;;;;6276078;22;20170;-72
2023/12/05 07:39:06;;;;;;;15.23;10.65;;;0.30;85.70;;;;;;6277013;22;20229;-75
2023/12/05 07:41:33;;;;;;;16.38;10.43;;;0.40;87.00;;;;;;6277354;22;20165;-74
2023/12/05 07:44:00;;;;;;;14.75;10.55;;;0.50;88.00;;;;;;6277242;22;20173;-72
2023/12/05 07:46:28;;;;;;;11.95;8.13;;;0.50;88.60;;;;;;6276800;22;20233;-72
2023/12/05 07:48:55;;;;;;;7.35;5.60;;;0.60;88.60;;;;;;6278323;22;20162;-72
2023/12/05 07:51:22;;;;;;;11.68;7.72;;;0.70;88.90;;;;;;6277591;22;20245;-72
2023/12/05 07:53:51;;;;;;;15.55;8.00;;;0.80;89.40;;;;;;6278045;22;20572;-72
2023/12/05 07:56:18;;;;;;;12.50;7.30;;;0.90;89.50;;;;;;6277636;22;20211;-73
2023/12/05 07:58:45;;;;;;;9.73;7.70;;;1.00;89.80;;;;;;6277653;22;20193;-73
2023/12/05 08:01:12;;;;;;;6.00;4.50;;;1.10;89.90;;;;;;6273577;22;20244;-74
2023/12/05 08:03:39;;;;;;;5.90;4.20;;;1.20;89.10;;;;;;6277229;22;20170;-72
2023/12/05 08:06:07;;;;;;;5.85;4.15;;;1.30;88.50;;;;;;6277762;22;20197;-73
2023/12/05 08:08:34;;;;;;;6.97;4.28;;;1.20;88.50;;;;;;6277802;22;20192;-72
2023/12/05 08:11:03;;;;;;;4.18;2.47;;;1.30;89.20;;;;;;6277947;22;20162;-72
2023/12/05 08:13:30;;;;;;;4.43;2.42;;;1.30;89.20;;;;;;6277331;22;20692;-73
2023/12/05 08:15:57;;;;;;;7.78;3.30;;;1.30;89.20;;;;;;6277802;22;20570;-73
2023/12/05 08:18:24;;;;;;;5.80;4.53;;;1.40;89.80;;;;;;6277384;22;20215;-72
2023/12/05 08:20:51;;;;;;;4.13;3.50;;;1.40;90.00;;;;;;6276655;22;20249;-72
2023/12/05 08:23:19;;;;;;;6.10;3.72;;;1.50;90.10;;;;;;6277364;22;20205;-72
2023/12/05 08:25:46;;;;;;;6.05;4.70;;;1.60;90.30;;;;;;6277855;22;20241;-72
2023/12/05 08:28:14;;;;;;;6.07;4.88;;;1.70;90.30;;;;;;6277712;22;20534;-72
2023/12/05 08:30:42;;;;;;;6.28;4.47;;;1.90;90.10;;;;;;6277708;22;20168;-72
2023/12/05 08:33:10;;;;;;;5.30;3.67;;;1.90;89.90;;;;;;6277533;22;20185;-72
2023/12/05 08:35:37;;;;;;;8.50;4.80;;;2.10;88.90;;;;;;6277977;22;20161;-72
2023/12/05 08:38:04;;;;;;;6.72;4.90;;;2.10;86.60;;;;;;6277608;22;20189;-72
2023/12/05 08:40:30;;;;;;;9.73;6.10;;;2.30;84.70;;;;;;6277584;22;20169;-72
2023/12/05 08:42:58;;;;;;;11.88;6.82;;;2.40;84.20;;;;;;6277761;22;20197;-72
2023/12/05 08:45:26;;;;;;;8.88;4.30;;;2.50;84.40;;;;;;6277549;22;20220;-73
2023/12/05 08:47:54;;;;;;;6.55;4.95;;;2.60;87.20;;;;;;6277403;22;20168;-72
2023/12/05 08:50:22;;;;;;;8.15;4.63;;;2.80;87.00;;;;;;6277301;22;20170;-74
2023/12/05 08:52:49;;;;;;;8.15;5.68;;;3.00;87.50;;;;;;6277327;22;20244;-72
2023/12/05 08:55:17;;;;;;;6.85;3.85;;;3.10;87.20;;;;;;6276968;22;20193;-72
2023/12/05 08:57:44;;;;;;;7.57;5.55;;;3.30;87.70;;;;;;6276996;22;20683;-72
2023/12/05 09:00:11;;;;;;;7.00;5.45;;;3.80;87.40;;;;;;6277617;22;20201;-72
2023/12/05 09:02:39;;;;;;;8.68;4.70;;;4.40;86.30;;;;;;6277031;22;20600;-73
2023/12/05 09:05:07;;;;;;;5.65;4.50;;;4.90;85.00;;;;;;6277296;22;20257;-72
2023/12/05 09:07:34;;;;;;;6.20;4.10;;;5.30;84.90;;;;;;6277396;22;20533;-72
2023/12/05 09:10:00;;;;;;;5.15;3.05;;;5.80;84.70;;;;;;6277204;22;20173;-73
2023/12/05 09:12:27;;;;;;;4.03;2.83;;;6.50;81.80;;;;;;6277411;22;20196;-72
2023/12/05 09:14:54;;;;;;;7.97;4.57;;;6.80;78.40;;;;;;6277216;22;20272;-72
2023/12/05 09:17:21;;;;;;;7.75;5.53;;;6.80;77.00;;;;;;6277136;22;20249;-73
2023/12/05 09:19:50;;;;;;;6.70;4.30;;;6.80;75.70;;;;;;6277145;22;20610;-72
2023/12/05 09:22:17;;;;;;;5.72;4.18;;;6.70;76.20;;;;;;6276782;22;20193;-73
2023/12/05 09:24:44;;;;;;;5.72;2.92;;;6.60;75.80;;;;;;6277141;22;20172;-73
2023/12/05 09:27:11;;;;;;;11.02;6.72;;;6.60;75.90;;;;;;6277147;22;20249;-72
2023/12/05 09:29:39;;;;;;;7.65;5.80;;;6.40;75.30;;;;;;6277150;22;20184;-72
2023/12/05 09:32:06;;;;;;;10.25;6.65;;;6.20;74.20;;;;;;6276524;22;20165;-72
2023/12/05 09:34:33;;;;;;;6.85;4.40;;;6.00;74.90;;;;;;6277028;22;20220;-73
2023/12/05 09:37:02;;;;;;;5.13;3.05;;;5.90;76.00;;;;;;6276990;22;20245;-72
2023/12/05 09:39:31;;;;;;;6.63;4.07;;;5.80;77.10;;;;;;6277092;22;20197;-72
2023/12/05 09:42:03;;;;;;;6.72;3.40;;;5.70;77.70;;;;;;6277003;22;20162;-72
2023/12/05 09:44:32;;;;;;;5.93;3.85;;;5.60;78.50;;;;;;6276802;22;20581;-72
2023/12/05 09:47:01;;;;;;;6.05;3.75;;;5.50;78.90;;;;;;6276530;22;20197;-72
2023/12/05 09:49:28;;;;;;;5.88;3.63;;;5.50;78.60;;;;;;6277051;22;20492;-72
2023/12/05 09:51:56;;;;;;;4.70;3.47;;;5.40;79.10;;;;;;6276749;22;20240;-73
2023/12/05 09:54:26;;;;;;;5.00;3.30;;;5.30;79.50;;;;;;6276400;22;20216;-73
2023/12/05 09:56:55;;;;;;;3.92;2.70;;;5.30;79.60;;;;;;6276967;22;20162;-72
2023/12/05 09:59:22;;;;;;;3.22;2.30;;;5.30;80.30;;;;;;6276239;22;20166;-73
2023/12/05 10:01:51;;;;;;;3.70;3.05;;;5.30;80.70;;;;;;6276827;22;20240;-72
2023/12/05 10:04:19;;;;;;;7.82;5.00;;;5.30;80.80;;;;;;6276105;22;20165;-74
2023/12/05 10:06:48;;;;;;;7.97;5.70;;;5.30;81.00;;;;;;6276522;22;20248;-72
2023/12/05 10:09:16;;;;;;;8.35;5.50;;;5.30;80.70;;;;;;6276426;22;20639;-72
2023/12/05 10:11:45;;;;;;;10.35;5.40;;;5.30;80.90;;;;;;6276702;22;20241;-72
2023/12/05 10:14:12;;;;;;;6.60;4.93;;;5.40;80.40;;;;;;6276726;22;20273;-73
2023/12/05 10:16:40;;;;;;;7.13;4.43;;;5.40;80.00;;;;;;6276349;22;20240;-72
2023/12/05 10:19:10;;;;;;;3.70;2.78;;;5.40;80.70;;;;;;6276395;22;20201;-78
2023/12/05 10:21:39;;;;;;;5.07;3.22;;;5.50;81.10;;;;;;6276485;22;20241;-73
2023/12/05 10:24:06;;;;;;;4.95;2.60;;;5.50;81.60;;;;;;6276795;22;20179;-73
2023/12/05 10:26:33;;;;;;;4.68;2.60;;;5.50;81.60;;;;;;6276262;22;20172;-72
2023/12/05 10:29:01;;;;;;;7.47;3.33;;;5.60;82.00;;;;;;6276696;22;20244;-72
2023/12/05 10:31:28;;;;;;;5.95;3.70;;;5.60;81.50;;;;;;6276582;22;20197;-72
2023/12/05 10:34:05;;;;;;;4.25;3.13;;;5.60;81.10;;;;;;6276774;22;20472;-72
2023/12/05 10:36:32;;;;;;;3.25;1.95;;;5.70;81.40;;;;;;6276893;22;20153;-72
2023/12/05 10:38:59;;;;;;;5.07;2.70;;;5.60;81.00;;;;;;6276386;22;20197;-72
2023/12/05 10:41:28;;;;;;;3.75;2.22;;;5.70;81.20;;;;;;6276782;22;20675;-73
2023/12/05 10:43:56;;;;;;;4.43;2.70;;;5.70;80.70;;;;;;6276147;22;20613;-72
2023/12/05 10:46:25;;;;;;;3.05;2.25;;;5.70;80.90;;;;;;6276765;22;20157;-72
2023/12/05 10:48:52;;;;;;;3.83;2.88;;;5.60;81.30;;;;;;6276317;22;20166;-72
2023/12/05 10:51:19;;;;;;;3.92;2.80;;;5.60;81.70;;;;;;6276646;22;20193;-72
2023/12/05 10:53:46;;;;;;;4.00;3.60;;;5.70;81.80;;;;;;6276650;22;20264;-72
2023/12/05 10:56:14;;;;;;;4.15;3.35;;;5.70;82.00;;;;;;6276710;22;20204;-72
2023/12/05 10:58:42;;;;;;;10.55;4.97;;;5.70;82.10;;;;;;6277167;22;20578;-72
2023/12/05 11:01:11;;;;;;;5.45;3.55;;;5.70;81.70;;;;;;6276700;22;20177;-72
2023/12/05 11:03:40;;;;;;;5.88;3.50;;;5.70;81.50;;;;;;6276715;22;20462;-72
2023/12/05 11:06:08;;;;;;;4.15;2.88;;;5.80;81.40;;;;;;6276626;22;20177;-72
2023/12/05 11:08:35;;;;;;;3.40;1.98;;;5.80;81.50;;;;;;6276591;22;20477;-73
2023/12/05 11:11:03;;;;;;;4.07;2.17;;;5.90;81.60;;;;;;6276083;22;20172;-73
2023/12/05 11:13:32;;;;;;;3.92;1.98;;;5.90;81.30;;;;;;6278406;22;20245;-72
2023/12/05 11:16:08;;;;;;;3.22;2.03;;;5.90;81.20;;;;;;6278350;22;20165;-74
2023/12/05 11:18:39;;;;;;;4.10;2.45;;;5.90;81.60;;;;;;6278587;22;20153;-73
2023/12/05 11:21:24;;;;;;;3.28;2.33;;;5.90;81.70;;;;;;6278682;22;20179;-74
2023/12/05 11:24:17;;;;;;;3.78;2.35;;;6.00;81.30;;;;;;6278509;22;20521;-72
2023/12/05 11:27:10;;;;;;;3.53;2.28;;;6.10;81.20;;;;;;6278053;22;20155;-72
2023/12/05 11:29:54;;;;;;;3.65;2.78;;;6.10;80.90;;;;;;6278592;22;20150;-73
2023/12/05 11:32:34;;;;;;;4.70;2.40;;;6.20;81.40;;;;;;6278286;22;20177;-73
2023/12/05 11:35:11;;;;;;;5.35;2.30;;;6.20;80.90;;;;;;6278261;22;20220;-72
2023/12/05 11:38:03;;;;;;;5.95;2.90;;;6.30;80.80;;;;;;6278285;22;20149;-73
2023/12/05 11:40:30;;;;;;;4.47;2.50;;;6.30;80.70;;;;;;6278238;22;20181;-73
2023/12/05 11:43:08;;;;;;;4.05;2.75;;;6.40;80.70;;;;;;6276564;22;20161;-74
2023/12/05 11:45:38;;;;;;;4.10;2.33;;;6.50;80.60;;;;;;6277847;22;20557;-73
2023/12/05 11:48:06;;;;;;;5.45;3.00;;;6.50;80.50;;;;;;6278046;22;20631;-73
2023/12/05 11:50:43;;;;;;;6.57;3.53;;;6.60;80.10;;;;;;6278111;22;20166;-73
2023/12/05 11:53:14;;;;;;;6.25;4.25;;;6.60;79.90;;;;;;6278029;22;20227;-73
2023/12/05 11:55:42;;;;;;;8.10;4.97;;;6.60;79.60;;;;;;6278214;22;20196;-73
2023/12/05 11:58:31;;;;;;;8.40;4.47;;;6.60;79.60;;;;;;6277972;22;20248;-72
2023/12/05 12:01:02;;;;;;;5.18;3.92;;;6.60;79.60;;;;;;6278060;22;20150;-73
2023/12/05 12:03:34;;;;;;;7.55;4.20;;;6.60;79.40;;;;;;6277865;22;20220;-73
2023/12/05 12:06:03;;;;;;;5.05;4.38;;;6.60;79.40;;;;;;6277208;22;20475;-72
2023/12/05 12:08:31;;;;;;;6.47;4.75;;;6.60;79.20;;;;;;6277767;22;20179;-73
2023/12/05 12:10:58;;;;;;;4.80;3.72;;;6.60;79.10;;;;;;6277802;22;20699;-73
2023/12/05 12:13:26;;;;;;;6.28;3.80;;;6.50;78.90;;;;;;6277767;22;20224;-73
2023/12/05 12:15:54;;;;;;;7.63;4.88;;;6.50;78.70;;;;;;6277329;22;20616;-73
2023/12/05 12:18:25;;;;;;;8.90;3.53;;;6.50;78.70;;;;;;6277408;22;20185;-73
2023/12/05 12:20:53;;;;;;;5.88;3.60;;;6.40;78.70;;;;;;6277373;22;20249;-73
2023/12/05 12:23:22;;;;;;;5.15;3.95;;;6.40;78.80;;;;;;6277493;22;20241;-73
2023/12/05 12:25:53;;;;;;;4.65;2.50;;;6.30;78.90;;;;;;6276428;22;20165;-73
2023/12/05 12:28:28;;;;;;;6.65;2.80;;;6.30;79.20;;;;;;6276896;22;20160;-73
2023/12/05 12:30:55;;;;;;;6.20;3.35;;;6.20;78.80;;;;;;6276204;22;20237;-74
2023/12/05 12:33:28;;;;;;;3.75;2.75;;;6.10;78.60;;;;;;6276917;22;20203;-75
2023/12/05 12:35:55;;;;;;;4.50;2.97;;;6.10;79.10;;;;;;6276627;22;20177;-74
2023/12/05 12:38:23;;;;;;;5.10;3.10;;;6.00;79.10;;;;;;6276908;22;20619;-73
2023/12/05 12:40:52;;;;;;;3.55;2.40;;;6.00;79.00;;;;;;6277782;22;20240;-73
2023/12/05 12:43:19;;;;;;;5.88;3.00;;;6.00;78.90;;;;;;6277144;22;20161;-73
2023/12/05 12:45:46;;;;;;;5.03;3.40;;;5.90;78.80;;;;;;6276620;22;20587;-73
2023/12/05 12:48:13;;;;;;;4.70;2.95;;;5.90;78.80;;;;;;6277143;22;20249;-73
2023/12/05 12:50:40;;;;;;;6.10;3.38;;;5.90;79.10;;;;;;6277216;22;20622;-73
2023/12/05 12:53:07;;;;;;;4.85;3.33;;;5.90;79.30;;;;;;6277410;22;20197;-73
2023/12/05 12:55:34;;;;;;;4.88;2.58;;;5.90;79.40;;;;;;6276980;22;20635;-73